Time;durP1;ratioP1;P1;durP2;ratioP2;P2;SDS_P1;SDS_P2;PMS_P1;PMS_P2;Temp;Humidity;BMP_temperature;BMP_pressure;BME280_temperature;BME280_humidity;BME280_pressure;Samples;Min_cycle;Max_cycle;Signal;HPM_P1;HPM_P2
2024/01/19 00:00:49;;;;;;;4.10;1.05;;;;;;;;;;5113920;28;20086;-78
2024/01/19 00:03:15;;;;;;;7.10;1.75;;;;;;;;;;5095934;28;20070;-79
2024/01/19 00:05:42;;;;;;;5.22;1.60;;;;;;;;;;5095976;28;20104;-78
2024/01/19 00:08:08;;;;;;;6.32;2.13;;;;;;;;;;5096099;28;20047;-78
2024/01/19 00:10:34;;;;;;;6.65;2.25;;;;;;;;;;5096022;28;20043;-78
2024/01/19 00:13:00;;;;;;;7.40;2.53;;;;;;;;;;5096021;28;20047;-78
2024/01/19 00:15:26;;;;;;;5.25;1.67;;;;;;;;;;5096097;28;20047;-78
2024/01/19 00:17:52;;;;;;;6.72;1.98;;;;;;;;;;5095606;28;20150;-78
2024/01/19 00:20:18;;;;;;;4.72;1.60;;;;;;;;;;5095423;28;20130;-79
2024/01/19 00:22:44;;;;;;;6.57;1.92;;;;;;;;;;5113789;28;20040;-78
2024/01/19 00:25:10;;;;;;;7.88;2.28;;;;;;;;;;5113743;28;20044;-79
2024/01/19 00:27:36;;;;;;;4.97;1.88;;;;;;;;;;5079263;28;20051;-78
2024/01/19 00:30:02;;;;;;;9.60;2.22;;;;;;;;;;5095858;28;20043;-79
2024/01/19 00:32:29;;;;;;;4.50;1.52;;;;;;;;;;5079718;28;20055;-78
2024/01/19 00:34:55;;;;;;;5.25;1.13;;;;;;;;;;5095716;28;20051;-78
2024/01/19 00:37:21;;;;;;;6.15;1.73;;;;;;;;;;5095813;28;20055;-78
2024/01/19 00:39:47;;;;;;;5.47;1.40;;;;;;;;;;5099409;28;20382;-78
2024/01/19 00:42:13;;;;;;;5.93;1.90;;;;;;;;;;5117569;28;20048;-78
2024/01/19 00:44:39;;;;;;;6.97;1.98;;;;;;;;;;5099502;28;20047;-78
2024/01/19 00:47:05;;;;;;;8.57;1.92;;;;;;;;;;5117376;28;20043;-79
2024/01/19 00:49:31;;;;;;;4.45;1.55;;;;;;;;;;5098852;28;20542;-79
2024/01/19 00:51:57;;;;;;;7.47;1.63;;;;;;;;;;5117313;28;20100;-79
2024/01/19 00:54:23;;;;;;;7.53;2.58;;;;;;;;;;5099248;28;20376;-78
2024/01/19 00:56:49;;;;;;;5.47;1.70;;;;;;;;;;5082115;28;20466;-79
2024/01/19 00:59:15;;;;;;;4.78;1.73;;;;;;;;;;5116982;28;20051;-78
2024/01/19 01:01:43;;;;;;;9.48;2.03;;;;;;;;;;5099103;28;20127;-79
2024/01/19 01:04:10;;;;;;;8.85;2.38;;;;;;;;;;5081363;28;20471;-78
2024/01/19 01:06:36;;;;;;;7.72;1.33;;;;;;;;;;5115885;28;20047;-79
2024/01/19 01:09:02;;;;;;;4.35;1.50;;;;;;;;;;5081197;28;20487;-79
2024/01/19 01:11:29;;;;;;;3.90;1.45;;;;;;;;;;5098604;28;20047;-78
2024/01/19 01:13:55;;;;;;;5.47;1.85;;;;;;;;;;5117278;28;20050;-79
2024/01/19 01:16:21;;;;;;;4.25;1.73;;;;;;;;;;5098678;28;20048;-78
2024/01/19 01:18:47;;;;;;;8.77;2.03;;;;;;;;;;5116135;28;20116;-79
2024/01/19 01:21:13;;;;;;;8.30;1.42;;;;;;;;;;5098665;28;20075;-78
2024/01/19 01:23:39;;;;;;;6.47;2.30;;;;;;;;;;5098430;28;20048;-79
2024/01/19 01:26:05;;;;;;;10.55;2.08;;;;;;;;;;5098926;28;20044;-78
2024/01/19 01:28:32;;;;;;;4.10;1.25;;;;;;;;;;5098460;28;20048;-78
2024/01/19 01:30:58;;;;;;;4.57;1.27;;;;;;;;;;5098510;28;20086;-78
2024/01/19 01:33:24;;;;;;;5.57;1.60;;;;;;;;;;5098642;28;20437;-79
2024/01/19 01:35:50;;;;;;;6.60;1.80;;;;;;;;;;5116664;28;20047;-78
2024/01/19 01:38:16;;;;;;;7.18;1.42;;;;;;;;;;5116338;28;20044;-79
2024/01/19 01:40:42;;;;;;;4.03;0.90;;;;;;;;;;5116214;28;20058;-79
2024/01/19 01:43:08;;;;;;;4.70;1.17;;;;;;;;;;5099017;28;20426;-79
2024/01/19 01:45:34;;;;;;;3.70;1.13;;;;;;;;;;5081776;28;20395;-78
2024/01/19 01:48:00;;;;;;;5.57;1.17;;;;;;;;;;5097653;28;20132;-79
2024/01/19 01:50:26;;;;;;;6.05;0.90;;;;;;;;;;5097372;28;20201;-79
2024/01/19 01:52:53;;;;;;;3.53;0.73;;;;;;;;;;5116195;28;20059;-79
2024/01/19 01:55:20;;;;;;;4.50;0.70;;;;;;;;;;5097919;28;20094;-78
2024/01/19 01:57:47;;;;;;;4.45;0.77;;;;;;;;;;5097636;28;20039;-79
2024/01/19 02:00:14;;;;;;;2.45;0.60;;;;;;;;;;5097939;28;20073;-78
2024/01/19 02:02:41;;;;;;;2.90;0.93;;;;;;;;;;5097879;28;20130;-79
2024/01/19 02:05:07;;;;;;;3.80;1.30;;;;;;;;;;5097875;28;20044;-79
2024/01/19 02:07:33;;;;;;;4.47;0.93;;;;;;;;;;5097835;28;20044;-79
2024/01/19 02:09:59;;;;;;;4.32;1.30;;;;;;;;;;5097264;28;20131;-79
2024/01/19 02:12:25;;;;;;;5.30;0.90;;;;;;;;;;5115773;28;20047;-79
2024/01/19 02:14:51;;;;;;;5.57;1.17;;;;;;;;;;5115673;28;20061;-79
2024/01/19 02:17:17;;;;;;;2.95;0.98;;;;;;;;;;5097278;28;20118;-79
2024/01/19 02:19:43;;;;;;;3.95;1.33;;;;;;;;;;5096999;28;20536;-79
2024/01/19 02:22:10;;;;;;;5.60;1.33;;;;;;;;;;5115163;28;20517;-79
2024/01/19 02:24:36;;;;;;;2.53;0.82;;;;;;;;;;5097590;28;20089;-79
2024/01/19 02:27:03;;;;;;;3.97;1.65;;;;;;;;;;5097584;28;20084;-79
2024/01/19 02:29:29;;;;;;;4.45;1.20;;;;;;;;;;5097100;28;20054;-79
2024/01/19 02:31:55;;;;;;;5.78;1.20;;;;;;;;;;5097219;28;20083;-79
2024/01/19 02:34:22;;;;;;;3.83;0.73;;;;;;;;;;5097794;28;20050;-79
2024/01/19 02:36:48;;;;;;;2.78;1.00;;;;;;;;;;5080557;28;20118;-79
2024/01/19 02:39:15;;;;;;;2.47;1.27;;;;;;;;;;5097093;28;20391;-79
2024/01/19 02:41:42;;;;;;;4.10;1.13;;;;;;;;;;5097182;28;20113;-79
2024/01/19 02:44:08;;;;;;;6.07;1.40;;;;;;;;;;5097072;28;20051;-79
2024/01/19 02:46:38;;;;;;;4.15;0.90;;;;;;;;;;5097552;28;20062;-79
2024/01/19 02:49:04;;;;;;;5.55;1.48;;;;;;;;;;5096518;28;20080;-79
2024/01/19 02:51:30;;;;;;;7.97;1.15;;;;;;;;;;5096737;28;20144;-78
2024/01/19 02:53:56;;;;;;;3.13;1.00;;;;;;;;;;5096735;28;20487;-79
2024/01/19 02:56:22;;;;;;;6.82;1.38;;;;;;;;;;5115133;28;20067;-79
2024/01/19 02:58:48;;;;;;;4.45;1.73;;;;;;;;;;5080003;28;20058;-79
2024/01/19 03:01:14;;;;;;;4.05;1.20;;;;;;;;;;5079954;28;20138;-79
2024/01/19 03:03:40;;;;;;;6.97;1.17;;;;;;;;;;5096530;28;20040;-79
2024/01/19 03:06:06;;;;;;;4.95;0.93;;;;;;;;;;5096472;28;20491;-79
2024/01/19 03:08:32;;;;;;;7.35;1.85;;;;;;;;;;5079273;28;20133;-79
2024/01/19 03:10:58;;;;;;;5.22;1.33;;;;;;;;;;5096805;28;20043;-79
2024/01/19 03:13:25;;;;;;;5.75;1.27;;;;;;;;;;5114514;28;20105;-79
2024/01/19 03:15:51;;;;;;;5.22;1.55;;;;;;;;;;5114541;28;20135;-79
2024/01/19 03:18:18;;;;;;;6.05;1.23;;;;;;;;;;5095822;28;20092;-79
2024/01/19 03:20:44;;;;;;;11.05;1.77;;;;;;;;;;5079717;28;20376;-79
2024/01/19 03:23:10;;;;;;;8.13;1.08;;;;;;;;;;5096484;28;20044;-79
2024/01/19 03:25:36;;;;;;;6.80;0.88;;;;;;;;;;5114286;28;20054;-79
2024/01/19 03:28:03;;;;;;;5.00;0.95;;;;;;;;;;5113931;28;20122;-79
2024/01/19 03:30:29;;;;;;;3.35;0.60;;;;;;;;;;5096200;28;20047;-79
2024/01/19 03:32:55;;;;;;;4.05;0.80;;;;;;;;;;5079534;28;20051;-79
2024/01/19 03:35:21;;;;;;;4.15;0.60;;;;;;;;;;5096097;28;20131;-79
2024/01/19 03:37:47;;;;;;;4.95;0.40;;;;;;;;;;5096072;28;20042;-79
2024/01/19 03:40:13;;;;;;;4.47;0.50;;;;;;;;;;5114123;28;20531;-79
2024/01/19 03:42:39;;;;;;;5.35;0.60;;;;;;;;;;5095963;28;20372;-79
2024/01/19 03:45:05;;;;;;;7.30;0.85;;;;;;;;;;5096286;28;20047;-79
2024/01/19 03:47:31;;;;;;;4.25;0.52;;;;;;;;;;5114182;28;20071;-79
2024/01/19 03:49:57;;;;;;;4.50;0.47;;;;;;;;;;5095793;28;20048;-79
2024/01/19 03:52:23;;;;;;;2.45;0.68;;;;;;;;;;5114319;28;20086;-79
2024/01/19 03:54:49;;;;;;;6.65;0.70;;;;;;;;;;5096014;28;20063;-79
2024/01/19 03:57:15;;;;;;;3.17;0.50;;;;;;;;;;5096010;28;20407;-79
2024/01/19 03:59:42;;;;;;;3.22;0.93;;;;;;;;;;5096067;28;20434;-79
2024/01/19 04:02:08;;;;;;;2.20;0.50;;;;;;;;;;5114413;28;20043;-78
2024/01/19 04:04:34;;;;;;;3.30;0.57;;;;;;;;;;5096038;28;20043;-79
2024/01/19 04:07:00;;;;;;;4.50;0.60;;;;;;;;;;5096009;28;20399;-79
2024/01/19 04:09:26;;;;;;;3.17;0.50;;;;;;;;;;5113854;28;20089;-79
2024/01/19 04:11:52;;;;;;;1.70;0.57;;;;;;;;;;5097039;28;20087;-79
2024/01/19 04:14:18;;;;;;;3.67;0.55;;;;;;;;;;5099837;28;20055;-79
2024/01/19 04:16:44;;;;;;;4.53;0.65;;;;;;;;;;5117875;28;20039;-79
2024/01/19 04:19:10;;;;;;;3.92;0.60;;;;;;;;;;5082732;28;20438;-79
2024/01/19 04:21:36;;;;;;;2.50;0.60;;;;;;;;;;5083128;28;20043;-79
2024/01/19 04:24:03;;;;;;;2.38;0.40;;;;;;;;;;5099889;28;20043;-79
2024/01/19 04:26:29;;;;;;;3.40;0.50;;;;;;;;;;5100233;28;20486;-79
2024/01/19 04:28:56;;;;;;;3.40;0.68;;;;;;;;;;5099725;28;20459;-79
2024/01/19 04:31:22;;;;;;;1.13;0.60;;;;;;;;;;5099844;28;20059;-79
2024/01/19 04:33:48;;;;;;;4.82;0.90;;;;;;;;;;5083089;28;20043;-79
2024/01/19 04:36:14;;;;;;;3.13;0.40;;;;;;;;;;5099698;28;20050;-79
2024/01/19 04:38:40;;;;;;;3.28;0.57;;;;;;;;;;5099079;28;20046;-79
2024/01/19 04:41:06;;;;;;;2.95;0.40;;;;;;;;;;5099830;28;20055;-79
2024/01/19 04:43:32;;;;;;;1.98;0.45;;;;;;;;;;5099452;28;20120;-79
2024/01/19 04:45:58;;;;;;;3.33;1.00;;;;;;;;;;5099461;28;20054;-79
2024/01/19 04:48:24;;;;;;;4.25;1.30;;;;;;;;;;5099293;28;20138;-79
2024/01/19 04:50:50;;;;;;;2.85;0.68;;;;;;;;;;5095308;27;20043;-79
2024/01/19 04:53:16;;;;;;;2.80;0.50;;;;;;;;;;5102554;27;20047;-79
2024/01/19 04:55:42;;;;;;;2.25;0.47;;;;;;;;;;5119086;27;20076;-79
2024/01/19 04:58:09;;;;;;;1.00;0.40;;;;;;;;;;5119267;27;20072;-79
2024/01/19 05:00:35;;;;;;;5.32;0.43;;;;;;;;;;5119570;27;20457;-79
2024/01/19 05:03:03;;;;;;;4.70;0.50;;;;;;;;;;5119522;27;20054;-79
2024/01/19 05:05:29;;;;;;;3.47;0.82;;;;;;;;;;5119350;27;20390;-79
2024/01/19 05:07:55;;;;;;;3.33;1.35;;;;;;;;;;5119194;27;20503;-78
2024/01/19 05:10:21;;;;;;;4.10;0.93;;;;;;;;;;5119431;27;20039;-79
2024/01/19 05:12:47;;;;;;;4.03;1.63;;;;;;;;;;5119172;27;20065;-79
2024/01/19 05:15:13;;;;;;;4.40;2.28;;;;;;;;;;5119542;27;20043;-79
2024/01/19 05:17:39;;;;;;;12.32;2.50;;;;;;;;;;5085372;27;20043;-79
2024/01/19 05:20:06;;;;;;;4.97;1.80;;;;;;;;;;5118470;27;20054;-79
2024/01/19 05:22:32;;;;;;;7.00;1.73;;;;;;;;;;5136925;27;20554;-79
2024/01/19 05:24:58;;;;;;;5.72;2.10;;;;;;;;;;5118375;27;20096;-79
2024/01/19 05:27:24;;;;;;;4.88;1.80;;;;;;;;;;5102083;27;20047;-79
2024/01/19 05:29:50;;;;;;;6.97;1.77;;;;;;;;;;5118780;27;20039;-78
2024/01/19 05:32:16;;;;;;;7.13;1.88;;;;;;;;;;5118976;27;20055;-79
2024/01/19 05:34:43;;;;;;;8.35;2.58;;;;;;;;;;5137044;27;20364;-79
2024/01/19 05:37:09;;;;;;;5.43;3.53;;;;;;;;;;5118719;27;20039;-79
2024/01/19 05:39:35;;;;;;;4.57;3.17;;;;;;;;;;5136993;27;20050;-79
2024/01/19 05:42:02;;;;;;;4.78;2.60;;;;;;;;;;5118334;27;20054;-79
2024/01/19 05:44:28;;;;;;;5.45;2.30;;;;;;;;;;5118545;27;20539;-79
2024/01/19 05:46:55;;;;;;;6.03;3.17;;;;;;;;;;5118736;27;20051;-79
2024/01/19 05:49:21;;;;;;;5.30;3.75;;;;;;;;;;5118376;27;20100;-79
2024/01/19 05:51:47;;;;;;;4.90;3.80;;;;;;;;;;5101608;27;20051;-79
2024/01/19 05:54:13;;;;;;;7.63;3.88;;;;;;;;;;5101504;27;20047;-78
2024/01/19 05:56:39;;;;;;;5.72;4.10;;;;;;;;;;5114600;28;20055;-78
2024/01/19 05:59:05;;;;;;;7.55;3.88;;;;;;;;;;5115034;28;20090;-79
2024/01/19 06:01:31;;;;;;;8.07;4.60;;;;;;;;;;5116003;28;20052;-78
2024/01/19 06:04:00;;;;;;;5.40;4.57;;;;;;;;;;5098069;28;20051;-78
2024/01/19 06:06:26;;;;;;;5.57;4.05;;;;;;;;;;5097695;28;20075;-78
2024/01/19 06:08:52;;;;;;;6.68;4.45;;;;;;;;;;5114671;28;20100;-78
2024/01/19 06:11:18;;;;;;;8.93;4.40;;;;;;;;;;5115205;28;20079;-78
2024/01/19 06:13:46;;;;;;;8.82;4.28;;;;;;;;;;5115804;28;20040;-78
2024/01/19 06:16:13;;;;;;;6.40;4.30;;;;;;;;;;5114732;28;20087;-78
2024/01/19 06:18:39;;;;;;;8.50;4.07;;;;;;;;;;5113831;28;20597;-79
2024/01/19 06:21:09;;;;;;;6.40;3.72;;;;;;;;;;5114450;28;20074;-78
2024/01/19 06:23:37;;;;;;;5.78;3.20;;;;;;;;;;5116042;28;20047;-78
2024/01/19 06:26:08;;;;;;;7.38;3.05;;;;;;;;;;5114223;28;20058;-78
2024/01/19 06:28:34;;;;;;;4.45;2.33;;;;;;;;;;5115960;28;20149;-78
2024/01/19 06:31:00;;;;;;;4.45;2.42;;;;;;;;;;5115410;28;20051;-78
2024/01/19 06:33:26;;;;;;;4.47;2.05;;;;;;;;;;5115318;28;20051;-78
2024/01/19 06:35:52;;;;;;;5.78;2.00;;;;;;;;;;5114072;28;20083;-78
2024/01/19 06:38:20;;;;;;;3.63;1.58;;;;;;;;;;5097240;28;20462;-78
2024/01/19 06:40:46;;;;;;;5.50;1.40;;;;;;;;;;5097660;28;20131;-78
2024/01/19 06:43:12;;;;;;;3.42;0.88;;;;;;;;;;5114242;28;20051;-78
2024/01/19 06:45:38;;;;;;;7.05;0.95;;;;;;;;;;5114300;28;20054;-78
2024/01/19 06:48:05;;;;;;;2.15;0.50;;;;;;;;;;5114107;28;20082;-78
2024/01/19 06:50:31;;;;;;;4.80;0.57;;;;;;;;;;5113554;28;20047;-78
2024/01/19 06:52:59;;;;;;;2.78;0.60;;;;;;;;;;5114048;28;20043;-78
2024/01/19 06:55:25;;;;;;;1.98;0.30;;;;;;;;;;5113669;28;20098;-78
2024/01/19 06:57:52;;;;;;;2.00;0.32;;;;;;;;;;5113662;28;20126;-78
2024/01/19 07:00:18;;;;;;;3.00;0.28;;;;;;;;;;5114067;28;20043;-78
2024/01/19 07:02:44;;;;;;;0.85;0.30;;;;;;;;;;5113907;28;20403;-78
2024/01/19 07:05:11;;;;;;;4.32;0.30;;;;;;;;;;5113581;28;20046;-78
2024/01/19 07:07:37;;;;;;;4.10;0.20;;;;;;;;;;5096423;28;20035;-78
2024/01/19 07:10:03;;;;;;;6.78;0.50;;;;;;;;;;5113912;28;20048;-78
2024/01/19 07:12:30;;;;;;;4.15;0.43;;;;;;;;;;5114702;28;20043;-78
2024/01/19 07:14:57;;;;;;;2.33;0.30;;;;;;;;;;5114617;28;20066;-78
2024/01/19 07:17:23;;;;;;;2.67;0.30;;;;;;;;;;5114488;28;20039;-78
2024/01/19 07:19:49;;;;;;;2.75;0.30;;;;;;;;;;5114135;28;20052;-78
2024/01/19 07:22:15;;;;;;;2.88;0.30;;;;;;;;;;5114483;28;20104;-78
2024/01/19 07:24:41;;;;;;;3.85;0.40;;;;;;;;;;5113537;28;20497;-78
2024/01/19 07:27:07;;;;;;;3.75;0.30;;;;;;;;;;5113663;28;20443;-78
2024/01/19 07:29:33;;;;;;;3.42;0.30;;;;;;;;;;5113006;28;20079;-78
2024/01/19 07:31:59;;;;;;;1.58;0.57;;;;;;;;;;5113284;28;20039;-78
2024/01/19 07:34:26;;;;;;;3.17;0.28;;;;;;;;;;5114344;28;20051;-78
2024/01/19 07:36:52;;;;;;;4.15;0.38;;;;;;;;;;5114189;28;20040;-78
2024/01/19 07:39:23;;;;;;;6.57;0.40;;;;;;;;;;5113062;28;20047;-78
2024/01/19 07:41:52;;;;;;;1.92;0.30;;;;;;;;;;5113284;28;20047;-78
2024/01/19 07:44:18;;;;;;;3.20;0.30;;;;;;;;;;5113151;28;20126;-78
2024/01/19 07:46:44;;;;;;;5.68;0.40;;;;;;;;;;5113645;28;20043;-78
2024/01/19 07:49:11;;;;;;;2.70;0.22;;;;;;;;;;5095459;28;20047;-78
2024/01/19 07:51:37;;;;;;;3.60;0.30;;;;;;;;;;5113075;28;20047;-78
2024/01/19 07:54:03;;;;;;;3.30;0.40;;;;;;;;;;5114079;28;20054;-78
2024/01/19 07:56:29;;;;;;;2.10;0.30;;;;;;;;;;5112365;28;20161;-78
2024/01/19 07:58:55;;;;;;;4.95;0.30;;;;;;;;;;5113169;28;20051;-78
2024/01/19 08:01:22;;;;;;;2.78;0.75;;;;;;;;;;5096157;28;20052;-78
2024/01/19 08:03:48;;;;;;;2.63;0.40;;;;;;;;;;5113934;28;20051;-78
2024/01/19 08:06:14;;;;;;;3.22;0.30;;;;;;;;;;5113021;28;20395;-78
2024/01/19 08:08:40;;;;;;;1.95;0.30;;;;;;;;;;5113328;28;20150;-78
2024/01/19 08:11:06;;;;;;;4.28;0.47;;;;;;;;;;5096168;28;20043;-78
2024/01/19 08:13:32;;;;;;;2.58;0.25;;;;;;;;;;5114126;28;20421;-78
2024/01/19 08:15:58;;;;;;;7.22;0.30;;;;;;;;;;5114058;28;20462;-78
2024/01/19 08:18:24;;;;;;;2.72;0.20;;;;;;;;;;5112891;28;20100;-78
2024/01/19 08:20:50;;;;;;;0.85;0.20;;;;;;;;;;5112540;28;20044;-78
2024/01/19 08:23:16;;;;;;;1.88;0.50;;;;;;;;;;5113877;28;20536;-78
2024/01/19 08:25:43;;;;;;;2.53;0.43;;;;;;;;;;5112849;28;20075;-78
2024/01/19 08:28:09;;;;;;;4.28;0.93;;;;;;;;;;5113842;28;20036;-78
2024/01/19 08:30:35;;;;;;;3.85;0.30;;;;;;;;;;5112904;28;20047;-78
2024/01/19 08:33:01;;;;;;;2.28;0.30;;;;;;;;;;5113908;28;20044;-78
2024/01/19 08:35:27;;;;;;;2.70;0.22;;;;;;;;;;5113747;28;20044;-78
2024/01/19 08:37:53;;;;;;;4.07;0.57;;;;;;;;;;5113210;28;20473;-78
2024/01/19 08:40:19;;;;;;;3.40;0.50;;;;;;;;;;5113155;28;20059;-78
2024/01/19 08:42:45;;;;;;;1.70;0.20;;;;;;;;;;5113296;28;20403;-78
2024/01/19 08:45:12;;;;;;;4.43;0.30;;;;;;;;;;5114206;28;20451;-78
2024/01/19 08:47:38;;;;;;;3.75;0.40;;;;;;;;;;5112677;28;20138;-78
2024/01/19 08:50:05;;;;;;;1.50;0.20;;;;;;;;;;5095430;28;20070;-78
2024/01/19 08:52:32;;;;;;;4.30;0.32;;;;;;;;;;5112668;28;20055;-78
2024/01/19 08:54:58;;;;;;;4.57;0.30;;;;;;;;;;5118764;28;20059;-78
2024/01/19 08:57:25;;;;;;;3.40;0.40;;;;;;;;;;5115930;28;20479;-78
2024/01/19 08:59:52;;;;;;;2.53;0.30;;;;;;;;;;5117498;27;20131;-78
2024/01/19 09:02:18;;;;;;;1.48;0.20;;;;;;;;;;5119835;27;20085;-78
2024/01/19 09:04:44;;;;;;;3.55;0.30;;;;;;;;;;5119483;27;20035;-78
2024/01/19 09:07:10;;;;;;;3.45;0.20;;;;;;;;;;5119637;27;20433;-78
2024/01/19 09:09:37;;;;;;;3.17;0.35;;;;;;;;;;5119629;27;20047;-78
2024/01/19 09:12:03;;;;;;;1.65;0.20;;;;;;;;;;5119603;27;20134;-78
2024/01/19 09:14:29;;;;;;;2.35;0.20;;;;;;;;;;5102431;27;20054;-78
2024/01/19 09:16:55;;;;;;;3.65;0.47;;;;;;;;;;5119319;27;20514;-78
2024/01/19 09:19:21;;;;;;;2.20;0.30;;;;;;;;;;5136953;27;20099;-79
2024/01/19 09:21:50;;;;;;;0.82;0.20;;;;;;;;;;5119180;27;20532;-78
2024/01/19 09:24:16;;;;;;;2.55;0.30;;;;;;;;;;5102301;27;20047;-78
2024/01/19 09:26:43;;;;;;;2.97;0.20;;;;;;;;;;5119175;27;20053;-78
2024/01/19 09:29:10;;;;;;;2.92;0.20;;;;;;;;;;5118770;27;20051;-78
2024/01/19 09:31:46;;;;;;;2.28;0.20;;;;;;;;;;5118998;27;20499;-78
2024/01/19 09:34:12;;;;;;;4.22;0.30;;;;;;;;;;5119523;27;20467;-78
2024/01/19 09:36:39;;;;;;;4.15;0.40;;;;;;;;;;5137004;27;20043;-78
2024/01/19 09:39:08;;;;;;;3.47;0.43;;;;;;;;;;5137098;27;20089;-78
2024/01/19 09:41:37;;;;;;;1.35;0.30;;;;;;;;;;5118661;27;20043;-79
2024/01/19 09:44:07;;;;;;;3.72;0.50;;;;;;;;;;5118787;27;20058;-79
2024/01/19 09:46:37;;;;;;;3.25;0.40;;;;;;;;;;5118767;27;20047;-79
2024/01/19 09:49:32;;;;;;;1.52;0.40;;;;;;;;;;5136504;27;20043;-79
2024/01/19 09:52:01;;;;;;;2.53;0.50;;;;;;;;;;5105197;27;20518;-79
2024/01/19 09:54:36;;;;;;;3.13;0.68;;;;;;;;;;5118511;27;20387;-78
2024/01/19 09:57:03;;;;;;;4.03;0.93;;;;;;;;;;5118643;27;20407;-79
2024/01/19 09:59:32;;;;;;;2.03;0.80;;;;;;;;;;5118621;27;20565;-79
2024/01/19 10:01:59;;;;;;;6.50;1.40;;;;;;;;;;5136643;27;20043;-79
2024/01/19 10:04:26;;;;;;;4.32;0.95;;;;;;;;;;5136593;27;20134;-79
2024/01/19 10:06:52;;;;;;;4.38;0.60;;;;;;;;;;5118417;27;20047;-79
2024/01/19 10:09:19;;;;;;;3.45;0.93;;;;;;;;;;5118725;27;20053;-79
2024/01/19 10:11:50;;;;;;;4.80;1.10;;;;;;;;;;5118130;27;20046;-79
2024/01/19 10:14:18;;;;;;;4.13;1.25;;;;;;;;;;5117764;27;20478;-79
2024/01/19 10:16:44;;;;;;;6.05;0.98;;;;;;;;;;5118250;27;20043;-79
2024/01/19 10:19:14;;;;;;;8.02;0.95;;;;;;;;;;5117782;27;20039;-79
2024/01/19 10:21:40;;;;;;;5.53;1.10;;;;;;;;;;5118089;27;20584;-79
2024/01/19 10:24:10;;;;;;;5.22;1.15;;;;;;;;;;5117885;27;20099;-79
2024/01/19 10:26:37;;;;;;;4.93;1.15;;;;;;;;;;5118031;27;20510;-79
2024/01/19 10:29:13;;;;;;;4.10;1.33;;;;;;;;;;5136133;27;20050;-79
2024/01/19 10:31:41;;;;;;;5.53;0.90;;;;;;;;;;5100947;27;20130;-79
2024/01/19 10:34:15;;;;;;;5.15;1.10;;;;;;;;;;5136043;27;20051;-79
2024/01/19 10:36:41;;;;;;;2.55;0.85;;;;;;;;;;5118703;27;20051;-79
2024/01/19 10:39:20;;;;;;;3.53;1.33;;;;;;;;;;5117755;27;20116;-79
2024/01/19 10:41:46;;;;;;;4.45;0.90;;;;;;;;;;5117734;27;20138;-78
2024/01/19 10:44:14;;;;;;;2.95;0.98;;;;;;;;;;5117680;27;20079;-79
2024/01/19 10:46:40;;;;;;;4.45;1.30;;;;;;;;;;5117755;27;20082;-79
2024/01/19 10:49:11;;;;;;;6.57;1.15;;;;;;;;;;5117023;27;20054;-79
2024/01/19 10:51:42;;;;;;;5.25;1.30;;;;;;;;;;5135717;27;20082;-79
2024/01/19 10:54:15;;;;;;;5.20;1.42;;;;;;;;;;5135638;27;20054;-79
2024/01/19 10:56:42;;;;;;;3.88;1.48;;;;;;;;;;5117123;27;20055;-79
2024/01/19 10:59:12;;;;;;;2.85;1.55;;;;;;;;;;5135472;27;20047;-79
2024/01/19 11:01:38;;;;;;;5.97;1.60;;;;;;;;;;5135651;27;20043;-79
2024/01/19 11:04:08;;;;;;;4.63;1.20;;;;;;;;;;5117563;27;20051;-79
2024/01/19 11:06:38;;;;;;;9.60;1.35;;;;;;;;;;5117430;27;20047;-78
2024/01/19 11:09:08;;;;;;;5.97;0.98;;;;;;;;;;5135707;27;20058;-79
2024/01/19 11:11:39;;;;;;;3.63;1.23;;;;;;;;;;5117173;27;20046;-79
2024/01/19 11:14:07;;;;;;;4.03;1.42;;;;;;;;;;5135493;27;20083;-78
2024/01/19 11:16:38;;;;;;;5.70;1.08;;;;;;;;;;5135061;27;20039;-79
2024/01/19 11:19:04;;;;;;;6.10;1.13;;;;;;;;;;5099932;27;20047;-79
2024/01/19 11:21:30;;;;;;;7.38;1.13;;;;;;;;;;5134714;27;20039;-79
2024/01/19 11:23:57;;;;;;;8.40;0.93;;;;;;;;;;5116768;27;20043;-79
2024/01/19 11:26:41;;;;;;;6.88;1.17;;;;;;;;;;5116988;27;20054;-79
2024/01/19 11:29:17;;;;;;;7.07;1.37;;;;;;;;;;5135034;27;20058;-78
2024/01/19 11:31:44;;;;;;;7.50;1.17;;;;;;;;;;5117071;27;20285;-78
2024/01/19 11:34:30;;;;;;;4.60;1.23;;;;;;;;;;5099806;27;20376;-78
2024/01/19 11:36:57;;;;;;;6.93;1.30;;;;;;;;;;5134699;27;20043;-79
2024/01/19 11:39:40;;;;;;;5.63;1.30;;;;;;;;;;5099851;28;20368;-78
2024/01/19 11:42:06;;;;;;;6.25;0.65;;;;;;;;;;5116656;27;20138;-79
2024/01/19 11:44:43;;;;;;;7.65;1.15;;;;;;;;;;5116736;28;20386;-79
2024/01/19 11:47:09;;;;;;;8.00;1.35;;;;;;;;;;5116661;28;20047;-79
2024/01/19 11:49:37;;;;;;;9.38;1.50;;;;;;;;;;5116251;28;20050;-79
2024/01/19 11:52:23;;;;;;;4.90;1.90;;;;;;;;;;5116659;27;20528;-79
2024/01/19 11:54:49;;;;;;;2.75;0.80;;;;;;;;;;5116278;28;20498;-79
2024/01/19 11:57:16;;;;;;;7.22;1.00;;;;;;;;;;5134679;28;20104;-79
2024/01/19 11:59:43;;;;;;;6.25;0.90;;;;;;;;;;5134697;28;20051;-79
2024/01/19 12:02:09;;;;;;;4.65;0.88;;;;;;;;;;5116810;28;20458;-79
2024/01/19 12:04:37;;;;;;;6.72;1.10;;;;;;;;;;5134660;28;20097;-79
2024/01/19 12:07:03;;;;;;;7.40;1.05;;;;;;;;;;5134270;28;20506;-79
2024/01/19 12:09:30;;;;;;;6.30;1.55;;;;;;;;;;5116502;28;20058;-79
2024/01/19 12:11:59;;;;;;;7.90;1.13;;;;;;;;;;5134562;28;20047;-79
2024/01/19 12:14:25;;;;;;;5.03;1.08;;;;;;;;;;5099483;28;20554;-79
2024/01/19 12:16:51;;;;;;;4.97;1.10;;;;;;;;;;5134398;28;20130;-79
2024/01/19 12:19:21;;;;;;;5.22;1.17;;;;;;;;;;5133872;28;20491;-79
2024/01/19 12:21:47;;;;;;;8.15;1.25;;;;;;;;;;5100301;28;20483;-79
2024/01/19 12:24:19;;;;;;;8.00;1.13;;;;;;;;;;5116097;28;20051;-79
2024/01/19 12:26:52;;;;;;;5.65;0.85;;;;;;;;;;5116522;28;20052;-79
2024/01/19 12:29:36;;;;;;;5.95;1.05;;;;;;;;;;5116339;28;20039;-80
2024/01/19 12:32:12;;;;;;;6.68;0.90;;;;;;;;;;5134645;28;20051;-79
2024/01/19 12:34:38;;;;;;;4.60;0.80;;;;;;;;;;5119368;27;20046;-80
2024/01/19 12:37:05;;;;;;;11.95;1.13;;;;;;;;;;5138245;27;20406;-80
2024/01/19 12:39:31;;;;;;;6.20;0.70;;;;;;;;;;5103087;27;20478;-79
2024/01/19 12:42:02;;;;;;;7.10;0.90;;;;;;;;;;5119531;27;20491;-79
2024/01/19 12:44:28;;;;;;;5.18;0.65;;;;;;;;;;5120190;27;20047;-80
2024/01/19 12:46:58;;;;;;;6.13;1.27;;;;;;;;;;5138131;27;20047;-80
2024/01/19 12:49:24;;;;;;;4.97;0.75;;;;;;;;;;5119285;27;20039;-80
2024/01/19 12:51:51;;;;;;;4.32;0.70;;;;;;;;;;5138232;27;20398;-80
2024/01/19 12:54:20;;;;;;;5.15;0.50;;;;;;;;;;5137942;27;20039;-80
2024/01/19 12:56:49;;;;;;;5.65;0.90;;;;;;;;;;5119417;27;20090;-80
2024/01/19 12:59:19;;;;;;;8.02;1.23;;;;;;;;;;5119539;27;20058;-79
2024/01/19 13:01:45;;;;;;;4.15;0.60;;;;;;;;;;5138050;27;20043;-80
2024/01/19 13:04:12;;;;;;;6.65;0.60;;;;;;;;;;5137812;27;20137;-80
2024/01/19 13:06:41;;;;;;;6.35;0.93;;;;;;;;;;5119695;27;20047;-79
2024/01/19 13:09:09;;;;;;;3.33;0.50;;;;;;;;;;5102737;27;20043;-80
2024/01/19 13:11:35;;;;;;;6.63;0.65;;;;;;;;;;5119794;27;20047;-80
2024/01/19 13:14:01;;;;;;;3.83;0.55;;;;;;;;;;5119370;27;20058;-80
2024/01/19 13:16:27;;;;;;;7.88;0.75;;;;;;;;;;5119467;27;20047;-80
2024/01/19 13:19:04;;;;;;;3.85;0.50;;;;;;;;;;5119291;27;20049;-80
2024/01/19 13:21:30;;;;;;;3.70;0.40;;;;;;;;;;5119068;27;20043;-80
2024/01/19 13:23:59;;;;;;;6.63;0.75;;;;;;;;;;5137415;27;20078;-80
2024/01/19 13:26:26;;;;;;;7.45;0.43;;;;;;;;;;5119280;27;20169;-79
2024/01/19 13:28:52;;;;;;;6.45;0.80;;;;;;;;;;5119109;27;20051;-80
2024/01/19 13:31:18;;;;;;;7.85;1.00;;;;;;;;;;5118831;27;20039;-80
2024/01/19 13:33:47;;;;;;;4.07;0.63;;;;;;;;;;5137159;27;20039;-80
2024/01/19 13:36:15;;;;;;;5.47;0.80;;;;;;;;;;5119004;27;20086;-79
2024/01/19 13:38:41;;;;;;;4.22;0.40;;;;;;;;;;5136991;27;20043;-80
2024/01/19 13:41:07;;;;;;;4.57;0.65;;;;;;;;;;5119124;27;20050;-80
2024/01/19 13:43:34;;;;;;;7.20;0.40;;;;;;;;;;5118896;27;20039;-80
2024/01/19 13:46:01;;;;;;;5.40;0.50;;;;;;;;;;5101128;27;20050;-80
2024/01/19 13:48:27;;;;;;;5.13;0.45;;;;;;;;;;5118818;27;20050;-80
2024/01/19 13:50:53;;;;;;;4.70;0.50;;;;;;;;;;5118360;27;20083;-80
2024/01/19 13:53:19;;;;;;;6.60;0.63;;;;;;;;;;5119252;27;20112;-80
2024/01/19 13:55:45;;;;;;;4.93;0.90;;;;;;;;;;5101278;27;20055;-80
2024/01/19 13:58:11;;;;;;;7.40;0.63;;;;;;;;;;5118322;27;20051;-79
2024/01/19 14:00:38;;;;;;;4.68;0.90;;;;;;;;;;5118264;27;20052;-79
2024/01/19 14:03:05;;;;;;;4.28;0.40;;;;;;;;;;5118421;27;20050;-80
2024/01/19 14:05:31;;;;;;;4.35;0.63;;;;;;;;;;5118163;27;20051;-80
2024/01/19 14:07:57;;;;;;;4.68;0.68;;;;;;;;;;5119193;27;20050;-80
2024/01/19 14:10:24;;;;;;;4.80;0.52;;;;;;;;;;5136449;27;20047;-80
2024/01/19 14:12:50;;;;;;;7.45;0.70;;;;;;;;;;5118359;27;20047;-79
2024/01/19 14:15:18;;;;;;;5.72;0.90;;;;;;;;;;5101160;27;20047;-79
2024/01/19 14:17:44;;;;;;;6.82;0.50;;;;;;;;;;5118566;27;20050;-80
2024/01/19 14:20:11;;;;;;;8.65;0.98;;;;;;;;;;5117759;27;20170;-80
2024/01/19 14:22:38;;;;;;;8.23;0.90;;;;;;;;;;5136222;27;20058;-80
2024/01/19 14:25:06;;;;;;;8.35;0.60;;;;;;;;;;5118034;27;20407;-79
2024/01/19 14:27:33;;;;;;;6.15;0.55;;;;;;;;;;5118319;27;20062;-80
2024/01/19 14:29:59;;;;;;;5.90;0.85;;;;;;;;;;5100915;27;20104;-80
2024/01/19 14:32:26;;;;;;;7.32;0.70;;;;;;;;;;5118055;27;20043;-80
2024/01/19 14:34:52;;;;;;;9.20;0.85;;;;;;;;;;5118276;27;20047;-80
2024/01/19 14:37:19;;;;;;;4.95;0.93;;;;;;;;;;5117893;27;20039;-80
2024/01/19 14:39:45;;;;;;;8.20;1.10;;;;;;;;;;5135897;27;20111;-80
2024/01/19 14:42:11;;;;;;;5.00;1.00;;;;;;;;;;5117741;27;20046;-80